Time;durP1;ratioP1;P1;durP2;ratioP2;P2;SDS_P1;SDS_P2;PMS_P1;PMS_P2;Temp;Humidity;BMP_temperature;BMP_pressure;BME280_temperature;BME280_humidity;BME280_pressure;Samples;Min_cycle;Max_cycle;Signal;HPM_P1;HPM_P2
2021/09/04 00:00:58;;;;;;;;;;;17.10;88.60;;;;;;5049742;28;20503;-76
2021/09/04 00:03:24;;;;;;;;;;;17.10;88.50;;;;;;5032805;28;19963;-76
2021/09/04 00:05:49;;;;;;;;;;;17.00;88.50;;;;;;5049623;28;19913;-75
2021/09/04 00:08:15;;;;;;;;;;;17.00;88.60;;;;;;5049310;28;19916;-76
2021/09/04 00:10:40;;;;;;;;;;;17.00;88.70;;;;;;5049264;28;20336;-76
2021/09/04 00:13:06;;;;;;;;;;;16.90;88.80;;;;;;5050458;28;20340;-75
2021/09/04 00:15:31;;;;;;;;;;;16.90;88.90;;;;;;5050458;28;19913;-76
2021/09/04 00:17:57;;;;;;;;;;;16.80;89.10;;;;;;5049321;28;20361;-75
2021/09/04 00:20:22;;;;;;;;;;;16.80;89.20;;;;;;5049497;28;19912;-76
2021/09/04 00:22:48;;;;;;;;;;;16.80;89.20;;;;;;5032179;28;19999;-76
2021/09/04 00:25:14;;;;;;;;;;;16.70;89.20;;;;;;5048804;28;19956;-76
2021/09/04 00:27:40;;;;;;;;;;;16.70;89.30;;;;;;5049109;28;19920;-75
2021/09/04 00:30:06;;;;;;;;;;;16.70;89.30;;;;;;5049994;28;19917;-76
2021/09/04 00:32:31;;;;;;;;;;;16.70;89.30;;;;;;5050374;28;19913;-76
2021/09/04 00:34:57;;;;;;;;;;;16.70;90.00;;;;;;5050585;28;19904;-76
2021/09/04 00:37:22;;;;;;;;;;;16.60;89.50;;;;;;5057375;28;20385;-76
2021/09/04 00:39:48;;;;;;;;;;;16.60;89.60;;;;;;5082372;28;19928;-76
2021/09/04 00:42:17;;;;;;;;;;;16.50;89.70;;;;;;5082398;28;19920;-76
2021/09/04 00:44:42;;;;;;;;;;;16.50;89.90;;;;;;5048299;28;20262;-76
2021/09/04 00:47:08;;;;;;;;;;;16.50;89.90;;;;;;5050391;28;19916;-75
2021/09/04 00:49:34;;;;;;;;;;;16.50;90.00;;;;;;5049027;28;19917;-76
2021/09/04 00:52:01;;;;;;;;;;;16.40;90.00;;;;;;5049877;28;19924;-76
2021/09/04 00:54:26;;;;;;;;;;;16.40;90.10;;;;;;5050045;28;19995;-76
2021/09/04 00:56:52;;;;;;;;;;;16.40;90.10;;;;;;5049494;28;20021;-76
2021/09/04 00:59:17;;;;;;;;;;;16.40;90.10;;;;;;5031592;28;20004;-76
2021/09/04 01:01:43;;;;;;;;;;;16.30;90.10;;;;;;5047900;28;19928;-76
2021/09/04 01:04:09;;;;;;;;;;;16.30;90.10;;;;;;5050405;28;20674;-76
2021/09/04 01:06:34;;;;;;;;;;;16.30;90.20;;;;;;5032000;28;19917;-76
2021/09/04 01:09:00;;;;;;;;;;;16.30;90.30;;;;;;5049486;28;19912;-76
2021/09/04 01:11:26;;;;;;;;;;;16.20;90.30;;;;;;5048702;28;19970;-76
2021/09/04 01:13:51;;;;;;;;;;;16.20;90.40;;;;;;5049493;28;19909;-76
2021/09/04 01:16:17;;;;;;;;;;;16.20;90.40;;;;;;5049750;28;20025;-76
2021/09/04 01:18:43;;;;;;;;;;;16.20;90.40;;;;;;5049933;28;19920;-76
2021/09/04 01:21:08;;;;;;;;;;;16.10;90.40;;;;;;5048838;28;19932;-76
2021/09/04 01:23:34;;;;;;;;;;;16.10;90.50;;;;;;5048631;28;19909;-76
2021/09/04 01:26:04;;;;;;;;;;;16.10;90.50;;;;;;5049934;28;19909;-75
2021/09/04 01:28:29;;;;;;;;;;;16.00;90.60;;;;;;5049367;28;20361;-76
2021/09/04 01:30:55;;;;;;;;;;;16.00;90.70;;;;;;5048822;28;19942;-76
2021/09/04 01:33:20;;;;;;;;;;;16.00;90.70;;;;;;5049980;28;20270;-76
2021/09/04 01:35:46;;;;;;;;;;;16.00;90.70;;;;;;5047920;28;19928;-76
2021/09/04 01:38:11;;;;;;;;;;;15.90;90.80;;;;;;5035154;28;19944;-75
2021/09/04 01:40:37;;;;;;;;;;;15.90;90.80;;;;;;5053257;28;19913;-76
2021/09/04 01:43:02;;;;;;;;;;;15.90;90.90;;;;;;5053318;28;19920;-75
2021/09/04 01:45:28;;;;;;;;;;;15.90;90.90;;;;;;5051679;28;19960;-75
2021/09/04 01:47:53;;;;;;;;;;;15.80;90.90;;;;;;5052855;28;19916;-76
2021/09/04 01:50:19;;;;;;;;;;;15.80;90.90;;;;;;5051648;28;19974;-75
2021/09/04 01:52:45;;;;;;;;;;;15.80;91.00;;;;;;5052796;28;19913;-75
2021/09/04 01:55:12;;;;;;;;;;;15.80;91.10;;;;;;5051331;28;19919;-75
2021/09/04 01:57:37;;;;;;;;;;;15.70;91.00;;;;;;5052048;28;20016;-75
2021/09/04 02:00:07;;;;;;;;;;;15.70;91.00;;;;;;5052978;28;20011;-75
2021/09/04 02:02:32;;;;;;;;;;;15.70;91.10;;;;;;5051370;28;20000;-75
2021/09/04 02:04:58;;;;;;;;;;;15.70;91.10;;;;;;5051641;28;20632;-75
2021/09/04 02:07:24;;;;;;;;;;;15.70;91.10;;;;;;5051860;28;19912;-76
2021/09/04 02:09:49;;;;;;;;;;;15.60;91.20;;;;;;5052785;28;20361;-75
2021/09/04 02:12:15;;;;;;;;;;;15.60;91.20;;;;;;5034773;28;20381;-76
2021/09/04 02:14:40;;;;;;;;;;;15.60;91.20;;;;;;5052947;28;19913;-76
2021/09/04 02:17:06;;;;;;;;;;;15.60;91.20;;;;;;5052792;28;19972;-76
2021/09/04 02:19:31;;;;;;;;;;;15.60;91.20;;;;;;5051354;28;19975;-75
2021/09/04 02:21:57;;;;;;;;;;;15.60;91.20;;;;;;5052235;28;19943;-76
2021/09/04 02:24:22;;;;;;;;;;;15.60;91.20;;;;;;5052359;28;19944;-76
2021/09/04 02:26:48;;;;;;;;;;;15.60;91.20;;;;;;5050825;28;20003;-75
2021/09/04 02:29:13;;;;;;;;;;;15.60;91.20;;;;;;5051953;28;20420;-76
2021/09/04 02:31:39;;;;;;;;;;;15.60;91.20;;;;;;5052291;28;19919;-76
2021/09/04 02:34:04;;;;;;;;;;;15.60;91.30;;;;;;5050068;28;19916;-76
2021/09/04 02:36:30;;;;;;;;;;;15.60;91.30;;;;;;5052146;28;19958;-76
2021/09/04 02:38:55;;;;;;;;;;;15.50;91.20;;;;;;5052306;28;19908;-76
2021/09/04 02:41:21;;;;;;;;;;;15.50;91.20;;;;;;5050961;28;20361;-76
2021/09/04 02:43:47;;;;;;;;;;;15.50;91.30;;;;;;5052129;28;19917;-75
2021/09/04 02:46:13;;;;;;;;;;;15.50;91.20;;;;;;5051942;28;19920;-75
2021/09/04 02:48:38;;;;;;;;;;;15.50;91.30;;;;;;5050431;28;19932;-75
2021/09/04 02:51:04;;;;;;;;;;;15.50;91.30;;;;;;5050736;28;20002;-76
2021/09/04 02:53:29;;;;;;;;;;;15.40;91.40;;;;;;5052008;28;19928;-76
2021/09/04 02:55:55;;;;;;;;;;;15.40;91.40;;;;;;5051681;28;20027;-76
2021/09/04 02:58:20;;;;;;;;;;;15.40;91.40;;;;;;5050734;28;19912;-75
2021/09/04 03:00:46;;;;;;;;;;;15.40;91.40;;;;;;5051666;28;20059;-75
2021/09/04 03:03:11;;;;;;;;;;;15.30;91.50;;;;;;5051589;28;20322;-76
2021/09/04 03:05:37;;;;;;;;;;;15.40;91.50;;;;;;5050024;28;19909;-75
2021/09/04 03:08:03;;;;;;;;;;;15.30;91.50;;;;;;5051543;28;19912;-75
2021/09/04 03:10:28;;;;;;;;;;;15.30;91.50;;;;;;5051462;28;19948;-76
2021/09/04 03:12:54;;;;;;;;;;;15.30;91.60;;;;;;5051343;28;19931;-75
2021/09/04 03:15:19;;;;;;;;;;;15.30;91.60;;;;;;5051813;28;19908;-75
2021/09/04 03:17:45;;;;;;;;;;;15.20;91.60;;;;;;5051348;28;19917;-76
2021/09/04 03:20:11;;;;;;;;;;;15.30;91.70;;;;;;5050192;28;19917;-76
2021/09/04 03:22:36;;;;;;;;;;;15.30;91.60;;;;;;5051158;28;19913;-76
2021/09/04 03:25:02;;;;;;;;;;;15.20;91.60;;;;;;5050982;28;19963;-75
2021/09/04 03:27:28;;;;;;;;;;;15.20;91.60;;;;;;5049407;28;19913;-76
2021/09/04 03:29:54;;;;;;;;;;;15.20;91.60;;;;;;5049200;28;19916;-76
2021/09/04 03:32:19;;;;;;;;;;;15.30;91.70;;;;;;5050585;28;19913;-76
2021/09/04 03:34:45;;;;;;;;;;;15.30;91.70;;;;;;5050878;28;20378;-75
2021/09/04 03:37:10;;;;;;;;;;;15.30;91.70;;;;;;5050434;28;19948;-76
2021/09/04 03:39:36;;;;;;;;;;;15.30;91.70;;;;;;5048549;28;20004;-76
2021/09/04 03:42:02;;;;;;;;;;;15.30;91.80;;;;;;5050462;28;19911;-76
2021/09/04 03:44:27;;;;;;;;;;;15.20;91.80;;;;;;5049107;28;19916;-76
2021/09/04 03:46:52;;;;;;;;;;;15.30;91.80;;;;;;5049722;28;19916;-76
2021/09/04 03:49:18;;;;;;;;;;;15.20;91.80;;;;;;5049825;28;19921;-76
2021/09/04 03:51:43;;;;;;;;;;;15.20;91.90;;;;;;5049831;28;19917;-75
2021/09/04 03:54:09;;;;;;;;;;;15.20;92.20;;;;;;5055557;28;19917;-75
2021/09/04 03:56:35;;;;;;;;;;;15.20;91.90;;;;;;5063347;28;19909;-75
2021/09/04 03:59:00;;;;;;;;;;;15.20;91.90;;;;;;5058232;28;20385;-76
2021/09/04 04:01:26;;;;;;;;;;;15.30;92.00;;;;;;5050299;28;19916;-76
2021/09/04 04:03:51;;;;;;;;;;;15.30;92.00;;;;;;5051016;28;19912;-75
2021/09/04 04:06:16;;;;;;;;;;;15.30;92.00;;;;;;5049302;28;20270;-75
2021/09/04 04:08:42;;;;;;;;;;;15.30;92.00;;;;;;5050700;28;19919;-75
2021/09/04 04:11:09;;;;;;;;;;;15.30;92.00;;;;;;5049001;28;19916;-75
2021/09/04 04:13:34;;;;;;;;;;;15.30;92.10;;;;;;5050280;28;20366;-75
2021/09/04 04:16:00;;;;;;;;;;;15.30;92.20;;;;;;5050915;28;19924;-75
2021/09/04 04:18:25;;;;;;;;;;;15.30;92.20;;;;;;5049387;28;19919;-75
2021/09/04 04:20:51;;;;;;;;;;;15.30;92.30;;;;;;5050780;28;19913;-75
2021/09/04 04:23:16;;;;;;;;;;;15.20;92.30;;;;;;5048999;28;19948;-75
2021/09/04 04:25:42;;;;;;;;;;;15.20;92.30;;;;;;5050580;28;19921;-75
2021/09/04 04:28:07;;;;;;;;;;;15.20;92.30;;;;;;5032849;28;20277;-76
2021/09/04 04:30:33;;;;;;;;;;;15.20;92.40;;;;;;5049226;28;19923;-76
2021/09/04 04:32:58;;;;;;;;;;;15.20;92.40;;;;;;5050328;28;19913;-75
2021/09/04 04:35:24;;;;;;;;;;;15.20;92.40;;;;;;5050006;28;19912;-75
2021/09/04 04:37:49;;;;;;;;;;;15.20;92.40;;;;;;5032362;28;19913;-76
2021/09/04 04:40:15;;;;;;;;;;;15.20;92.50;;;;;;5050674;28;19959;-76
2021/09/04 04:42:41;;;;;;;;;;;15.30;92.50;;;;;;5049094;28;19952;-75
2021/09/04 04:45:07;;;;;;;;;;;15.30;92.50;;;;;;5046934;28;19913;-76
2021/09/04 04:47:33;;;;;;;;;;;15.30;92.50;;;;;;5050241;28;20378;-76
2021/09/04 04:49:59;;;;;;;;;;;15.20;92.40;;;;;;5050127;28;19916;-75
2021/09/04 04:52:25;;;;;;;;;;;15.20;92.50;;;;;;5048789;28;19999;-75
2021/09/04 04:54:50;;;;;;;;;;;15.10;92.60;;;;;;5048921;28;19956;-76
2021/09/04 04:57:16;;;;;;;;;;;15.20;92.70;;;;;;5050467;28;19916;-76
2021/09/04 04:59:41;;;;;;;;;;;15.10;92.70;;;;;;5050164;28;19925;-75
2021/09/04 05:02:07;;;;;;;;;;;15.10;92.80;;;;;;5048606;28;19931;-75
2021/09/04 05:04:32;;;;;;;;;;;15.10;92.90;;;;;;5048693;28;19996;-75
2021/09/04 05:06:58;;;;;;;;;;;15.10;92.80;;;;;;5050136;28;20011;-75
2021/09/04 05:09:23;;;;;;;;;;;15.10;92.80;;;;;;5049548;28;19913;-75
2021/09/04 05:11:49;;;;;;;;;;;15.10;92.90;;;;;;5034179;28;19917;-76
2021/09/04 05:14:14;;;;;;;;;;;15.00;92.90;;;;;;5054246;28;20006;-76
2021/09/04 05:16:40;;;;;;;;;;;15.00;92.90;;;;;;5053599;28;19916;-75
2021/09/04 05:19:05;;;;;;;;;;;15.00;93.00;;;;;;5054046;28;19917;-76
2021/09/04 05:21:31;;;;;;;;;;;15.00;93.00;;;;;;5053779;28;19912;-75
2021/09/04 05:23:56;;;;;;;;;;;14.90;93.00;;;;;;5053594;28;20330;-76
2021/09/04 05:26:22;;;;;;;;;;;14.90;93.10;;;;;;5053972;28;19921;-75
2021/09/04 05:28:47;;;;;;;;;;;14.90;93.10;;;;;;5053716;28;19936;-75
2021/09/04 05:31:13;;;;;;;;;;;14.90;93.10;;;;;;5053448;28;19958;-75
2021/09/04 05:33:38;;;;;;;;;;;14.90;93.20;;;;;;5035773;28;19963;-76
2021/09/04 05:36:04;;;;;;;;;;;14.90;93.20;;;;;;5052007;28;19970;-75
2021/09/04 05:38:30;;;;;;;;;;;14.90;93.10;;;;;;5051419;28;19974;-76
2021/09/04 05:40:55;;;;;;;;;;;14.90;93.20;;;;;;5052015;28;19913;-75
2021/09/04 05:43:21;;;;;;;;;;;14.90;93.10;;;;;;5052063;28;19940;-75
2021/09/04 05:45:49;;;;;;;;;;;14.90;93.10;;;;;;5058866;28;19912;-75
2021/09/04 05:48:15;;;;;;;;;;;14.90;93.10;;;;;;5054144;28;19996;-75
2021/09/04 05:50:40;;;;;;;;;;;14.80;93.10;;;;;;5052621;28;19999;-75
2021/09/04 05:53:06;;;;;;;;;;;14.80;93.10;;;;;;5069359;28;19916;-75
2021/09/04 05:55:31;;;;;;;;;;;14.80;93.20;;;;;;5053038;28;19913;-75
2021/09/04 05:57:56;;;;;;;;;;;14.80;93.20;;;;;;5053801;28;19917;-75
2021/09/04 06:00:22;;;;;;;;;;;14.80;93.10;;;;;;5068756;28;19919;-76
2021/09/04 06:02:48;;;;;;;;;;;14.80;93.10;;;;;;5035708;28;20015;-75
2021/09/04 06:05:13;;;;;;;;;;;14.80;93.10;;;;;;5053567;28;19917;-75
2021/09/04 06:07:39;;;;;;;;;;;14.80;93.10;;;;;;5086544;28;19916;-76
2021/09/04 06:10:04;;;;;;;;;;;14.80;93.10;;;;;;5053963;28;19966;-75
2021/09/04 06:12:30;;;;;;;;;;;14.80;93.10;;;;;;5053682;28;19913;-75
2021/09/04 06:14:55;;;;;;;;;;;14.80;93.10;;;;;;5069493;28;19913;-75
2021/09/04 06:17:21;;;;;;;;;;;14.70;93.10;;;;;;5052837;28;19963;-75
2021/09/04 06:19:46;;;;;;;;;;;14.70;93.10;;;;;;5053914;28;19916;-75
2021/09/04 06:22:12;;;;;;;;;;;14.70;93.30;;;;;;5051589;28;20365;-75
2021/09/04 06:24:37;;;;;;;;;;;14.70;93.30;;;;;;5054113;28;19915;-75
2021/09/04 06:27:03;;;;;;;;;;;14.70;93.30;;;;;;5053304;28;19913;-75
2021/09/04 06:29:29;;;;;;;;;;;14.70;93.30;;;;;;5052409;28;20374;-76
2021/09/04 06:31:54;;;;;;;;;;;14.70;93.30;;;;;;5068311;28;20400;-75
2021/09/04 06:34:20;;;;;;;;;;;14.80;93.20;;;;;;5053131;28;19948;-75
2021/09/04 06:36:45;;;;;;;;;;;14.70;93.20;;;;;;5035699;28;19975;-76
2021/09/04 06:39:11;;;;;;;;;;;14.70;93.20;;;;;;5054105;28;19905;-75
2021/09/04 06:41:36;;;;;;;;;;;14.80;93.20;;;;;;5052105;28;19920;-75
2021/09/04 06:44:02;;;;;;;;;;;14.80;93.20;;;;;;5053637;28;19948;-76
2021/09/04 06:46:32;;;;;;;;;;;14.80;93.30;;;;;;5053260;28;19963;-75
2021/09/04 06:48:58;;;;;;;;;;;14.80;93.20;;;;;;5052105;28;20377;-75
2021/09/04 06:51:23;;;;;;;;;;;14.90;93.20;;;;;;5052845;28;19919;-75
2021/09/04 06:53:49;;;;;;;;;;;14.90;93.10;;;;;;5052001;28;19904;-75
2021/09/04 06:56:15;;;;;;;;;;;14.90;93.10;;;;;;5053330;28;19920;-75
2021/09/04 06:58:40;;;;;;;;;;;14.90;93.10;;;;;;5060013;28;20361;-75
2021/09/04 07:01:06;;;;;;;;;;;14.90;93.10;;;;;;5051892;28;19924;-75
2021/09/04 07:03:32;;;;;;;;;;;14.90;93.10;;;;;;5052502;28;19955;-76
2021/09/04 07:05:58;;;;;;;;;;;14.90;93.10;;;;;;5051979;28;19912;-76
2021/09/04 07:08:23;;;;;;;;;;;14.80;93.10;;;;;;5052345;28;20000;-75
2021/09/04 07:10:49;;;;;;;;;;;14.90;93.10;;;;;;5051139;28;20361;-75
2021/09/04 07:13:14;;;;;;;;;;;14.90;93.30;;;;;;5054760;28;19916;-76
2021/09/04 07:15:40;;;;;;;;;;;14.90;93.00;;;;;;5051398;28;19912;-76
2021/09/04 07:18:06;;;;;;;;;;;15.00;92.90;;;;;;5051139;28;19916;-75
2021/09/04 07:20:31;;;;;;;;;;;15.00;93.00;;;;;;5052514;28;19908;-76
2021/09/04 07:22:57;;;;;;;;;;;15.00;92.90;;;;;;5051123;28;19912;-76
2021/09/04 07:25:22;;;;;;;;;;;15.00;92.90;;;;;;5055877;28;20357;-75
2021/09/04 07:27:48;;;;;;;;;;;15.00;92.80;;;;;;5035709;28;19919;-76
2021/09/04 07:30:14;;;;;;;;;;;15.00;92.80;;;;;;5051585;28;20000;-76
2021/09/04 07:32:39;;;;;;;;;;;15.00;92.80;;;;;;5052613;28;20388;-76
2021/09/04 07:35:05;;;;;;;;;;;15.10;92.80;;;;;;5066994;28;19916;-76
2021/09/04 07:37:30;;;;;;;;;;;15.10;92.80;;;;;;5053950;28;19936;-75
2021/09/04 07:39:56;;;;;;;;;;;15.20;92.80;;;;;;5052715;28;19951;-76
2021/09/04 07:42:21;;;;;;;;;;;15.20;92.70;;;;;;5052231;28;19913;-76
2021/09/04 07:44:47;;;;;;;;;;;15.20;92.70;;;;;;5052351;28;19905;-83
2021/09/04 07:47:12;;;;;;;;;;;15.30;92.70;;;;;;5052834;28;19905;-82
2021/09/04 07:49:38;;;;;;;;;;;15.30;92.60;;;;;;5052746;28;20513;-82
2021/09/04 07:52:03;;;;;;;;;;;15.30;92.60;;;;;;5086237;28;19913;-82
2021/09/04 07:54:29;;;;;;;;;;;15.30;92.60;;;;;;5053956;28;19912;-82
2021/09/04 07:56:54;;;;;;;;;;;15.30;92.60;;;;;;5086290;28;19909;-83
2021/09/04 07:59:20;;;;;;;;;;;15.30;92.60;;;;;;5053897;28;20001;-83
2021/09/04 08:01:45;;;;;;;;;;;15.40;92.60;;;;;;5053434;28;19920;-83
2021/09/04 08:04:14;;;;;;;;;;;15.40;92.50;;;;;;5035901;28;19921;-82
2021/09/04 08:06:39;;;;;;;;;;;15.40;92.50;;;;;;5052372;28;19962;-82
2021/09/04 08:09:05;;;;;;;;;;;15.50;92.40;;;;;;5053547;28;19908;-86
2021/09/04 08:11:30;;;;;;;;;;;15.40;92.20;;;;;;5052272;28;19952;-86
2021/09/04 08:13:56;;;;;;;;;;;15.40;92.20;;;;;;5053711;28;20003;-86
2021/09/04 08:16:22;;;;;;;;;;;15.40;92.20;;;;;;5069171;28;20285;-85
2021/09/04 08:18:47;;;;;;;;;;;15.40;92.20;;;;;;5086051;28;19909;-86
2021/09/04 08:21:12;;;;;;;;;;;15.40;92.20;;;;;;5053512;28;19909;-87
2021/09/04 08:23:38;;;;;;;;;;;15.40;92.20;;;;;;5053446;28;19937;-81
2021/09/04 08:26:04;;;;;;;;;;;15.40;92.30;;;;;;5052178;28;19913;-86
2021/09/04 08:28:29;;;;;;;;;;;15.50;92.20;;;;;;5052446;28;20020;-87
2021/09/04 08:30:55;;;;;;;;;;;15.60;92.20;;;;;;5053676;28;20408;-86
2021/09/04 08:33:20;;;;;;;;;;;15.60;91.90;;;;;;5052331;28;20011;-87
2021/09/04 08:35:45;;;;;;;;;;;15.80;91.80;;;;;;5052477;28;19912;-86
2021/09/04 08:38:11;;;;;;;;;;;15.80;91.70;;;;;;5035617;28;19913;-85
2021/09/04 08:40:41;;;;;;;;;;;15.90;91.60;;;;;;5051458;28;19909;-87
2021/09/04 08:43:06;;;;;;;;;;;16.00;91.30;;;;;;5068378;28;19909;-85
2021/09/04 08:45:32;;;;;;;;;;;16.00;91.10;;;;;;5054107;28;19913;-85
2021/09/04 08:47:59;;;;;;;;;;;15.90;91.10;;;;;;5056435;28;20358;-86
2021/09/04 08:50:25;;;;;;;;;;;16.00;91.10;;;;;;5057417;28;19952;-86
2021/09/04 08:52:51;;;;;;;;;;;16.00;91.00;;;;;;5056239;28;20392;-86
2021/09/04 08:55:17;;;;;;;;;;;16.00;91.10;;;;;;5057217;28;19904;-86
2021/09/04 08:57:42;;;;;;;;;;;16.10;90.90;;;;;;5039146;28;19974;-87
2021/09/04 09:00:08;;;;;;;;;;;16.10;90.80;;;;;;5057081;28;19912;-87
2021/09/04 09:02:34;;;;;;;;;;;16.10;90.70;;;;;;5056451;28;20507;-86
2021/09/04 09:04:59;;;;;;;;;;;16.10;90.80;;;;;;5056797;28;19966;-84
2021/09/04 09:07:36;;;;;;;;;;;16.10;90.70;;;;;;5056581;28;19909;-86
2021/09/04 09:10:02;;;;;;;;;;;16.10;90.70;;;;;;5056200;28;20269;-86
2021/09/04 09:12:28;;;;;;;;;;;16.20;90.60;;;;;;5053106;28;19924;-86
2021/09/04 09:14:54;;;;;;;;;;;16.20;90.60;;;;;;5053401;28;19913;-86
2021/09/04 09:17:22;;;;;;;;;;;16.20;90.60;;;;;;5053044;28;19909;-86
2021/09/04 09:19:48;;;;;;;;;;;16.30;90.60;;;;;;5054569;28;19913;-86
2021/09/04 09:22:14;;;;;;;;;;;16.30;90.40;;;;;;5054823;28;19919;-86
2021/09/04 09:24:40;;;;;;;;;;;16.40;90.40;;;;;;5053358;28;20682;-86
2021/09/04 09:27:05;;;;;;;;;;;16.40;90.30;;;;;;5054934;28;19909;-87
2021/09/04 09:29:35;;;;;;;;;;;16.40;90.30;;;;;;5053726;28;19917;-87
2021/09/04 09:32:02;;;;;;;;;;;16.50;90.40;;;;;;5054921;28;19920;-86
2021/09/04 09:34:28;;;;;;;;;;;16.50;90.10;;;;;;5053407;28;20094;-88
2021/09/04 09:37:03;;;;;;;;;;;16.50;90.20;;;;;;5054474;28;20011;-86
2021/09/04 09:39:32;;;;;;;;;;;16.50;90.30;;;;;;5054898;28;19939;-86
2021/09/04 09:41:58;;;;;;;;;;;16.60;90.20;;;;;;5056119;28;19904;-88
2021/09/04 09:44:25;;;;;;;;;;;16.70;90.10;;;;;;5038341;28;19944;-86
2021/09/04 09:46:52;;;;;;;;;;;16.70;89.50;;;;;;5036200;28;19930;-87
2021/09/04 09:49:24;;;;;;;;;;;16.60;89.50;;;;;;5034798;28;19905;-87
2021/09/04 09:51:49;;;;;;;;;;;16.50;89.80;;;;;;5036579;28;19924;-89
2021/09/04 09:54:15;;;;;;;;;;;16.40;90.00;;;;;;5068325;28;19939;-85
2021/09/04 09:56:41;;;;;;;;;;;16.40;90.00;;;;;;5081683;28;19915;-86
2021/09/04 09:59:09;;;;;;;;;;;16.50;90.20;;;;;;5053859;28;19913;-85
2021/09/04 10:01:35;;;;;;;;;;;16.50;90.20;;;;;;5054441;28;19917;-86
2021/09/04 10:04:01;;;;;;;;;;;16.60;90.10;;;;;;5055922;28;19920;-87
2021/09/04 10:06:27;;;;;;;;;;;16.70;90.10;;;;;;5070814;28;19908;-85
2021/09/04 10:08:52;;;;;;;;;;;16.80;89.80;;;;;;5055528;28;20357;-84
2021/09/04 10:11:18;;;;;;;;;;;16.80;89.70;;;;;;5054458;28;19912;-85
2021/09/04 10:13:44;;;;;;;;;;;16.90;89.50;;;;;;5055738;28;19927;-83
2021/09/04 10:16:09;;;;;;;;;;;16.90;89.30;;;;;;5054503;28;19909;-84
2021/09/04 10:18:37;;;;;;;;;;;16.90;89.10;;;;;;5055722;28;19912;-84
2021/09/04 10:21:07;;;;;;;;;;;16.90;89.00;;;;;;5055726;28;19991;-84
2021/09/04 10:23:32;;;;;;;;;;;16.90;89.10;;;;;;5055624;28;20026;-84
2021/09/04 10:26:16;;;;;;;;;;;16.90;88.90;;;;;;5055731;28;19909;-84
2021/09/04 10:29:00;;;;;;;;;;;16.90;88.80;;;;;;5054331;28;19909;-85
2021/09/04 10:31:44;;;;;;;;;;;16.90;88.90;;;;;;5056174;28;19908;-90
2021/09/04 10:34:10;;;;;;;;;;;16.80;88.80;;;;;;5058925;28;20342;-89
2021/09/04 10:36:36;;;;;;;;;;;16.90;89.10;;;;;;5054981;28;20319;-88
2021/09/04 10:39:01;;;;;;;;;;;16.90;89.30;;;;;;5056894;28;20003;-90
2021/09/04 10:41:33;;;;;;;;;;;16.90;89.10;;;;;;5072924;28;19908;-88
2021/09/04 10:43:58;;;;;;;;;;;16.80;88.90;;;;;;5060544;28;20388;-88
2021/09/04 10:46:24;;;;;;;;;;;16.70;89.20;;;;;;5081250;28;19909;-88
2021/09/04 10:48:57;;;;;;;;;;;16.80;89.40;;;;;;5056656;28;19955;-87
2021/09/04 10:51:42;;;;;;;;;;;16.70;89.40;;;;;;5056539;28;19925;-88
2021/09/04 10:54:08;;;;;;;;;;;16.70;89.60;;;;;;5057697;28;19904;-88
2021/09/04 10:56:36;;;;;;;;;;;16.70;89.60;;;;;;5055251;28;19915;-88
2021/09/04 10:59:02;;;;;;;;;;;16.70;89.40;;;;;;5054117;28;19959;-87
2021/09/04 11:01:52;;;;;;;;;;;16.70;89.70;;;;;;5063583;28;19929;-87
2021/09/04 11:04:18;;;;;;;;;;;16.70;89.80;;;;;;5066346;28;19929;-87
2021/09/04 11:06:50;;;;;;;;;;;16.80;89.80;;;;;;5078020;28;19917;-87
2021/09/04 11:09:17;;;;;;;;;;;16.80;89.90;;;;;;5068710;28;19916;-88
2021/09/04 11:11:43;;;;;;;;;;;16.90;89.70;;;;;;5065717;28;19981;-86
2021/09/04 11:14:15;;;;;;;;;;;16.90;89.40;;;;;;5083793;28;19916;-87
2021/09/04 11:16:42;;;;;;;;;;;17.00;89.40;;;;;;5063883;28;19922;-85
2021/09/04 11:19:08;;;;;;;;;;;17.00;89.10;;;;;;5063709;28;19912;-87
2021/09/04 11:21:43;;;;;;;;;;;17.00;89.00;;;;;;5061134;28;20288;-87
2021/09/04 11:24:09;;;;;;;;;;;17.10;89.20;;;;;;5061753;28;19912;-88
2021/09/04 11:26:45;;;;;;;;;;;17.20;89.00;;;;;;5060820;28;19928;-88
2021/09/04 11:29:11;;;;;;;;;;;17.30;88.70;;;;;;5062769;28;19913;-82
2021/09/04 11:31:48;;;;;;;;;;;17.40;88.50;;;;;;5063095;28;19924;-86
2021/09/04 11:34:13;;;;;;;;;;;17.40;88.30;;;;;;5061855;28;19908;-88
2021/09/04 11:36:39;;;;;;;;;;;17.40;87.90;;;;;;5063634;28;19912;-88
2021/09/04 11:39:04;;;;;;;;;;;17.40;88.00;;;;;;5065190;28;19908;-88
2021/09/04 11:41:30;;;;;;;;;;;17.40;87.80;;;;;;5074787;28;19908;-89
2021/09/04 11:43:55;;;;;;;;;;;17.50;88.00;;;;;;5107352;28;20285;-88
2021/09/04 11:46:22;;;;;;;;;;;17.50;87.80;;;;;;5074291;28;19911;-78
2021/09/04 11:48:48;;;;;;;;;;;17.70;87.40;;;;;;5062687;28;19905;-86
2021/09/04 11:51:14;;;;;;;;;;;17.70;87.40;;;;;;5058616;28;20380;-86
2021/09/04 11:53:39;;;;;;;;;;;17.80;87.20;;;;;;5052959;28;19917;-83
2021/09/04 11:56:37;;;;;;;58.65;35.45;;;18.00;86.40;;;;;;5106211;27;1297892;-89
2021/09/04 11:59:07;;;;;;;49.88;32.28;;;18.00;85.70;;;;;;5122624;28;20040;-89
2021/09/04 12:01:34;;;;;;;54.50;33.75;;;18.10;85.80;;;;;;5130071;27;20122;-89
2021/09/04 12:04:00;;;;;;;50.67;32.13;;;18.30;85.70;;;;;;5123588;28;20433;-89
2021/09/04 12:06:25;;;;;;;49.35;30.65;;;18.40;85.40;;;;;;5111156;28;20034;-89
2021/09/04 12:08:52;;;;;;;56.55;34.03;;;18.50;84.90;;;;;;5116990;28;20042;-89
2021/09/04 12:11:22;;;;;;;47.67;32.47;;;18.70;83.90;;;;;;5121214;28;20027;-88
2021/09/04 12:13:48;;;;;;;48.80;31.83;;;18.70;84.50;;;;;;5130150;28;20030;-89
2021/09/04 12:16:17;;;;;;;57.33;32.13;;;18.90;83.60;;;;;;5131421;27;20027;-87
2021/09/04 12:18:43;;;;;;;45.05;30.95;;;19.00;83.30;;;;;;5129982;28;20026;-86
2021/09/04 12:21:22;;;;;;;45.40;30.85;;;19.10;82.70;;;;;;5114943;28;20031;-84
2021/09/04 12:23:50;;;;;;;49.40;33.78;;;19.30;82.50;;;;;;5109186;28;20020;-82
2021/09/04 12:26:15;;;;;;;48.08;33.30;;;19.40;81.00;;;;;;5110602;28;20024;-87
2021/09/04 12:28:42;;;;;;;50.40;33.17;;;19.30;80.50;;;;;;5113544;28;20083;-86
2021/09/04 12:31:16;;;;;;;46.53;32.53;;;19.20;80.70;;;;;;5116455;28;20028;-85
2021/09/04 12:33:51;;;;;;;50.20;33.65;;;19.20;81.40;;;;;;5116465;28;20046;-88
2021/09/04 12:36:40;;;;;;;51.70;33.80;;;19.20;81.90;;;;;;5115565;28;20024;-87
2021/09/04 12:39:25;;;;;;;52.50;35.45;;;19.30;81.70;;;;;;5118295;28;20012;-84
2021/09/04 12:42:05;;;;;;;49.00;34.22;;;19.40;81.30;;;;;;5118101;28;20472;-90
2021/09/04 12:44:39;;;;;;;51.60;32.63;;;19.50;81.50;;;;;;5100829;28;20109;-83
2021/09/04 12:47:05;;;;;;;54.67;35.28;;;19.70;81.00;;;;;;5112718;28;20066;-84
2021/09/04 12:49:50;;;;;;;50.97;35.35;;;19.80;80.70;;;;;;5115504;28;20061;-86
2021/09/04 12:52:23;;;;;;;53.45;36.05;;;19.90;80.00;;;;;;5110217;28;20472;-86
2021/09/04 12:54:48;;;;;;;52.13;36.30;;;19.90;80.60;;;;;;5091631;28;20060;-84
2021/09/04 12:57:29;;;;;;;51.15;35.33;;;20.00;79.70;;;;;;5110013;28;20134;-82
2021/09/04 13:00:01;;;;;;;51.90;34.30;;;20.10;79.60;;;;;;5108776;28;20115;-86
2021/09/04 13:02:28;;;;;;;49.10;32.08;;;20.20;78.70;;;;;;5108851;28;20507;-82
2021/09/04 13:04:59;;;;;;;48.90;33.65;;;20.10;78.30;;;;;;5115022;28;20038;-83
2021/09/04 13:07:25;;;;;;;53.75;34.63;;;20.10;78.60;;;;;;5101745;28;20495;-82
2021/09/04 13:09:51;;;;;;;49.55;32.38;;;20.10;78.70;;;;;;5116691;28;20035;-84
2021/09/04 13:12:17;;;;;;;52.72;33.65;;;20.10;79.80;;;;;;5104064;28;20031;-84
2021/09/04 13:14:43;;;;;;;50.83;35.45;;;20.10;78.60;;;;;;5097893;28;20039;-84
2021/09/04 13:17:09;;;;;;;49.75;34.60;;;20.20;78.00;;;;;;5115058;28;20024;-85
2021/09/04 13:19:35;;;;;;;43.83;32.28;;;20.20;78.50;;;;;;5108100;28;20020;-85
2021/09/04 13:22:01;;;;;;;51.65;33.25;;;20.20;78.40;;;;;;5098332;28;20525;-88
2021/09/04 13:24:27;;;;;;;46.97;33.15;;;20.30;78.50;;;;;;5098015;28;20019;-84
2021/09/04 13:26:53;;;;;;;56.10;36.75;;;20.40;78.40;;;;;;5095844;28;20086;-87
2021/09/04 13:29:21;;;;;;;51.13;34.08;;;20.50;78.70;;;;;;5089531;28;20032;-84
2021/09/04 13:31:48;;;;;;;53.40;35.42;;;20.60;78.20;;;;;;5097726;28;20111;-85
2021/09/04 13:34:15;;;;;;;46.08;32.95;;;20.60;77.70;;;;;;5097910;28;20035;-89
2021/09/04 13:36:41;;;;;;;45.95;33.30;;;20.70;77.40;;;;;;5104870;28;20024;-89
2021/09/04 13:39:06;;;;;;;47.75;34.10;;;20.70;77.10;;;;;;5104321;28;20018;-88
2021/09/04 13:41:32;;;;;;;52.17;34.58;;;20.70;77.90;;;;;;5104634;28;20549;-91
2021/09/04 13:43:58;;;;;;;42.97;32.17;;;20.70;77.70;;;;;;5116995;28;20016;-90
2021/09/04 13:46:23;;;;;;;44.83;31.08;;;20.70;77.50;;;;;;5115180;28;20070;-92
2021/09/04 13:48:49;;;;;;;43.38;31.48;;;20.80;77.20;;;;;;5084210;28;20055;-88
2021/09/04 13:51:15;;;;;;;48.67;34.20;;;20.80;76.70;;;;;;5094531;28;20419;-89
2021/09/04 13:53:41;;;;;;;46.75;34.28;;;20.90;76.20;;;;;;5099879;28;20455;-83
2021/09/04 13:56:06;;;;;;;42.53;31.65;;;20.90;76.00;;;;;;5099786;28;20048;-87